createdAt,value
2019-04-10T00:01:53.254Z,94396.97
2019-04-10T00:04:25.204Z,94402.70
2019-04-10T00:07:08.379Z,94405.48
2019-04-10T00:09:29.458Z,94402.44
2019-04-10T00:12:00.996Z,94401.15
2019-04-10T00:14:32.435Z,94400.27
2019-04-10T00:17:03.471Z,94405.14
2019-04-10T00:19:35.732Z,94404.88
2019-04-10T00:22:06.897Z,94410.05
2019-04-10T00:24:37.927Z,94400.01
2019-04-10T00:27:08.883Z,94400.88
2019-04-10T00:29:40.415Z,94399.09
2019-04-10T00:32:11.951Z,94394.10
2019-04-10T00:34:43.010Z,94391.22
2019-04-10T00:37:21.880Z,94394.23
2019-04-10T00:39:46.696Z,94397.30
2019-04-10T00:42:18.785Z,94393.05
2019-04-10T00:44:50.165Z,94390.00
2019-04-10T00:47:21.270Z,94387.22
2019-04-10T00:49:52.331Z,94388.86
2019-04-10T00:52:24.096Z,94388.00
2019-04-10T00:54:55.393Z,94391.34
2019-04-10T00:57:27.520Z,94383.00
2019-04-10T00:59:58.870Z,94383.66
2019-04-10T01:02:29.956Z,94384.63
2019-04-10T01:05:00.940Z,94389.13
2019-04-10T01:07:39.457Z,94385.31
2019-04-10T01:10:08.148Z,94380.62
2019-04-10T01:12:40.435Z,94381.88
2019-04-10T01:15:12.129Z,94384.44
2019-04-10T01:17:43.384Z,94385.30
2019-04-10T01:20:15.608Z,94384.26
2019-04-10T01:22:47.682Z,94387.48
2019-04-10T01:25:18.756Z,94390.19
2019-04-10T01:27:50.032Z,94382.91
2019-04-10T01:30:22.167Z,94380.95
2019-04-10T01:32:54.360Z,94382.29
2019-04-10T01:35:26.541Z,94378.93
2019-04-10T01:38:00.998Z,94374.70
2019-04-10T01:40:30.910Z,94373.12
2019-04-10T01:43:09.946Z,94373.70
2019-04-10T01:45:36.055Z,94367.91
2019-04-10T01:48:07.913Z,94362.44
2019-04-10T01:50:39.029Z,94362.96
2019-04-10T01:53:10.021Z,94362.84
2019-04-10T01:55:41.014Z,94359.92
2019-04-10T01:58:21.094Z,94363.49
2019-04-10T02:01:14.337Z,94351.66
2019-04-10T02:03:46.501Z,94353.30
2019-04-10T02:06:18.861Z,94356.79
2019-04-10T02:08:50.039Z,94355.48
2019-04-10T02:11:21.744Z,94359.33
2019-04-10T02:13:53.896Z,94360.70
2019-04-10T02:16:25.576Z,94356.21
2019-04-10T02:18:57.725Z,94362.31
2019-04-10T02:21:28.807Z,94357.73
2019-04-10T02:24:00.823Z,94359.77
2019-04-10T02:26:32.069Z,94362.12
2019-04-10T02:29:03.815Z,94355.16
2019-04-10T02:31:36.464Z,94357.95
2019-04-10T02:34:09.379Z,94353.30
2019-04-10T02:36:40.497Z,94348.73
2019-04-10T02:39:20.546Z,94350.95
2019-04-10T02:41:45.714Z,94349.69
2019-04-10T02:44:18.513Z,94345.27
2019-04-10T02:46:50.187Z,94351.17
2019-04-10T02:49:22.532Z,94349.44
2019-04-10T02:51:54.851Z,94355.21
2019-04-10T02:54:27.066Z,94348.17
2019-04-10T02:56:58.623Z,94352.25
2019-04-10T02:59:30.947Z,94350.83
2019-04-10T03:02:02.929Z,94345.22
2019-04-10T03:04:37.073Z,94344.30
2019-04-10T03:07:09.491Z,94352.00
2019-04-10T03:09:53.644Z,94353.84
2019-04-10T03:12:14.559Z,94351.00
2019-04-10T03:14:47.521Z,94349.97
2019-04-10T03:17:19.759Z,94356.84
2019-04-10T03:19:51.859Z,94354.02
2019-04-10T03:22:23.084Z,94353.34
2019-04-10T03:24:54.736Z,94351.81
2019-04-10T03:27:26.032Z,94357.08
2019-04-10T03:29:57.344Z,94356.42
2019-04-10T03:32:51.779Z,94359.75
2019-04-10T03:35:27.257Z,94358.24
2019-04-10T03:37:59.181Z,94363.15
2019-04-10T03:40:31.375Z,94360.02
2019-04-10T03:43:03.546Z,94359.30
2019-04-10T03:45:34.803Z,94357.28
2019-04-10T03:48:06.429Z,94358.55
2019-04-10T03:50:37.595Z,94351.69
2019-04-10T03:53:09.619Z,94359.78
2019-04-10T03:55:41.053Z,94355.67
2019-04-10T03:58:12.043Z,94357.92
2019-04-10T04:00:43.278Z,94359.50
2019-04-10T04:03:14.255Z,94357.72
2019-04-10T04:05:45.327Z,94353.88
2019-04-10T04:08:16.326Z,94354.91
2019-04-10T04:10:47.309Z,94353.95
2019-04-10T04:13:19.471Z,94354.13
2019-04-10T04:15:50.673Z,94355.13
2019-04-10T04:18:21.845Z,94351.44
2019-04-10T04:20:53.047Z,94352.20
2019-04-10T04:23:24.036Z,94356.48
2019-04-10T04:25:55.106Z,94357.01
2019-04-10T04:28:26.157Z,94357.69
2019-04-10T04:30:57.235Z,94354.16
2019-04-10T04:33:28.244Z,94358.86
2019-04-10T04:35:59.915Z,94354.09
2019-04-10T04:38:31.022Z,94358.66
2019-04-10T04:41:02.409Z,94361.13
2019-04-10T04:43:33.495Z,94354.50
2019-04-10T04:46:04.563Z,94357.66
2019-04-10T04:48:35.548Z,94363.18
2019-04-10T04:51:06.771Z,94360.78
2019-04-10T04:53:37.822Z,94364.86
2019-04-10T04:56:09.481Z,94362.77
2019-04-10T04:58:40.660Z,94364.38
2019-04-10T05:01:12.672Z,94373.11
2019-04-10T05:03:44.337Z,94366.20
2019-04-10T05:06:16.014Z,94371.00
2019-04-10T05:08:47.173Z,94367.23
2019-04-10T05:11:18.380Z,94373.00
2019-04-10T05:13:49.474Z,94372.97
2019-04-10T05:16:20.692Z,94375.20
2019-04-10T05:18:52.021Z,94370.30
2019-04-10T05:21:23.221Z,94372.57
2019-04-10T05:23:54.197Z,94383.05
2019-04-10T05:26:25.684Z,94375.83
2019-04-10T05:28:57.117Z,94379.55
2019-04-10T05:31:28.206Z,94383.77
2019-04-10T05:33:59.221Z,94386.62
2019-04-10T05:36:31.228Z,94382.67
2019-04-10T05:39:04.246Z,94387.55
2019-04-10T05:41:35.279Z,94388.06
2019-04-10T05:44:07.422Z,94386.92
2019-04-10T05:46:38.841Z,94392.17
2019-04-10T05:49:11.142Z,94390.56
2019-04-10T05:51:42.128Z,94390.63
2019-04-10T05:54:13.115Z,94387.64
2019-04-10T05:56:44.796Z,94390.87
2019-04-10T05:59:16.406Z,94388.38
2019-04-10T06:01:48.480Z,94394.81
2019-04-10T06:04:19.676Z,94393.78
2019-04-10T06:06:50.655Z,94391.02
2019-04-10T06:09:22.670Z,94390.82
2019-04-10T06:11:53.743Z,94397.93
2019-04-10T06:14:24.721Z,94397.73
2019-04-10T06:16:55.773Z,94396.97
2019-04-10T06:19:26.985Z,94401.95
2019-04-10T06:21:58.035Z,94401.19
2019-04-10T06:24:29.948Z,94404.87
2019-04-10T06:27:01.870Z,94399.86
2019-04-10T06:29:33.096Z,94395.06
2019-04-10T06:32:05.238Z,94395.05
2019-04-10T06:34:38.398Z,94394.27
2019-04-10T06:37:10.262Z,94394.64
2019-04-10T06:39:43.410Z,94389.30
2019-04-10T06:42:14.289Z,94395.95
2019-04-10T06:44:46.052Z,94396.42
2019-04-10T06:47:18.146Z,94395.06
2019-04-10T06:49:49.222Z,94399.12
2019-04-10T06:52:20.690Z,94398.55
2019-04-10T06:54:51.668Z,94396.48
2019-04-10T06:57:22.965Z,94395.67
2019-04-10T06:59:54.427Z,94404.75
2019-04-10T07:02:30.530Z,94406.43
2019-04-10T07:05:04.994Z,94402.81
2019-04-10T07:07:46.356Z,94407.77
2019-04-10T07:10:19.673Z,94407.03
2019-04-10T07:12:38.039Z,94405.98
2019-04-10T07:15:10.544Z,94402.91
2019-04-10T07:17:42.215Z,94409.14
2019-04-10T07:20:18.389Z,94406.81
2019-04-10T07:22:49.732Z,94409.69
2019-04-10T07:25:21.781Z,94413.81
2019-04-10T07:27:54.237Z,94415.45
2019-04-10T07:30:26.622Z,94413.14
2019-04-10T07:32:59.196Z,94416.19
2019-04-10T07:35:33.714Z,94414.58
2019-04-10T07:38:03.101Z,94421.75
2019-04-10T07:40:36.455Z,94422.28
2019-04-10T07:43:06.898Z,94413.45
2019-04-10T07:45:39.208Z,94418.83
2019-04-10T07:48:10.710Z,94418.55
2019-04-10T07:50:44.465Z,94421.09
2019-04-10T07:53:14.895Z,94424.55
2019-04-10T07:55:59.054Z,94420.58
2019-04-10T07:58:19.491Z,94423.13
2019-04-10T08:00:51.417Z,94428.05
2019-04-10T08:03:22.894Z,94427.77
2019-04-10T08:05:54.745Z,94429.03
2019-04-10T08:08:26.024Z,94427.25
2019-04-10T08:10:57.411Z,94436.07
2019-04-10T08:13:28.897Z,94438.22
2019-04-10T08:16:02.752Z,94435.49
2019-04-10T08:18:35.045Z,94439.13
2019-04-10T08:21:07.130Z,94444.61
2019-04-10T08:23:38.399Z,94447.45
2019-04-10T08:26:09.408Z,94454.47
2019-04-10T08:28:41.287Z,94457.90
2019-04-10T08:31:12.779Z,94460.67
2019-04-10T08:33:44.066Z,94468.48
2019-04-10T08:36:15.315Z,94466.08
2019-04-10T08:38:46.689Z,94462.81
2019-04-10T08:41:17.924Z,94459.52
2019-04-10T08:43:50.184Z,94474.03
2019-04-10T08:46:21.879Z,94475.49
2019-04-10T08:48:53.920Z,94474.67
2019-04-10T08:51:25.674Z,94469.30
2019-04-10T08:53:56.938Z,94474.66
2019-04-10T08:56:28.071Z,94471.91
2019-04-10T08:59:00.356Z,94472.89
2019-04-10T09:01:31.711Z,94473.22
2019-04-10T09:04:03.631Z,94480.52
2019-04-10T09:06:35.625Z,94475.97
2019-04-10T09:09:09.652Z,94475.48
2019-04-10T09:11:41.076Z,94482.49
2019-04-10T09:14:12.842Z,94481.03
2019-04-10T09:16:44.922Z,94478.58
2019-04-10T09:19:16.187Z,94487.21
2019-04-10T09:21:47.906Z,94478.42
2019-04-10T09:24:19.638Z,94479.20
2019-04-10T09:26:50.906Z,94483.16
2019-04-10T09:29:24.717Z,94481.84
2019-04-10T09:31:55.984Z,94483.79
2019-04-10T09:34:27.673Z,94482.48
2019-04-10T09:36:59.820Z,94481.19
2019-04-10T09:39:31.800Z,94481.67
2019-04-10T09:42:03.350Z,94471.23
2019-04-10T09:44:35.609Z,94483.28
2019-04-10T09:47:07.738Z,94483.81
2019-04-10T09:49:43.701Z,94493.70
2019-04-10T09:52:12.407Z,94484.91
2019-04-10T09:54:43.690Z,94483.44
2019-04-10T09:57:15.386Z,94487.55
2019-04-10T09:59:47.269Z,94480.99
2019-04-10T10:02:19.554Z,94477.42
2019-04-10T10:04:50.781Z,94479.53
2019-04-10T10:07:21.727Z,94481.85
2019-04-10T10:09:52.751Z,94482.91
2019-04-10T10:12:23.727Z,94482.63
2019-04-10T10:14:55.961Z,94485.47
2019-04-10T10:17:28.526Z,94483.19
2019-04-10T10:19:59.724Z,94485.13
2019-04-10T10:22:31.945Z,94491.37
2019-04-10T10:25:03.175Z,94490.55
2019-04-10T10:27:35.490Z,94485.85
2019-04-10T10:30:09.372Z,94485.32
2019-04-10T10:32:42.131Z,94482.94
2019-04-10T10:35:14.671Z,94493.01
2019-04-10T10:37:46.319Z,94500.38
2019-04-10T10:40:19.313Z,94489.78
2019-04-10T10:42:50.446Z,94486.37
2019-04-10T10:45:22.831Z,94492.25
2019-04-10T10:47:54.762Z,94490.23
2019-04-10T10:50:25.896Z,94488.89
2019-04-10T10:52:57.595Z,94498.84
2019-04-10T10:55:29.735Z,94498.83
2019-04-10T10:58:01.691Z,94493.14
2019-04-10T11:00:33.571Z,94490.31
2019-04-10T11:03:05.700Z,94488.98
2019-04-10T11:05:37.305Z,94490.70
2019-04-10T11:08:08.444Z,94490.11
2019-04-10T11:10:39.499Z,94491.64
2019-04-10T11:13:10.500Z,94493.66
2019-04-10T11:15:45.217Z,94496.94
2019-04-10T11:18:14.478Z,94496.80
2019-04-10T11:20:45.556Z,94497.05
2019-04-10T11:23:18.246Z,94511.27
2019-04-10T11:25:50.357Z,94495.88
2019-04-10T11:28:22.258Z,94490.87
2019-04-10T11:30:54.290Z,94493.81
2019-04-10T11:33:26.322Z,94490.87
2019-04-10T11:36:00.097Z,94491.84
2019-04-10T11:38:31.209Z,94494.98
2019-04-10T11:41:03.539Z,94488.60
2019-04-10T11:43:36.226Z,94488.98
2019-04-10T11:46:08.122Z,94490.11
2019-04-10T11:48:41.861Z,94486.47
2019-04-10T11:51:13.451Z,94491.05
2019-04-10T11:53:50.750Z,94493.81
2019-04-10T11:56:19.194Z,94486.64
2019-04-10T11:58:55.858Z,94490.70
2019-04-10T12:01:25.549Z,94489.25
2019-04-10T12:03:56.790Z,94490.83
2019-04-10T12:06:29.860Z,94495.11
2019-04-10T12:09:32.041Z,94503.75
2019-04-10T12:11:37.103Z,94495.19
2019-04-10T12:14:08.219Z,94499.23
2019-04-10T12:16:39.225Z,94499.77
2019-04-10T12:19:11.038Z,94495.94
2019-04-10T12:21:42.185Z,94504.26
2019-04-10T12:24:14.054Z,94505.95
2019-04-10T12:26:45.299Z,94508.38
2019-04-10T12:29:16.317Z,94499.52
2019-04-10T12:31:48.206Z,94506.19
2019-04-10T12:34:20.215Z,94505.63
2019-04-10T12:36:53.427Z,94513.73
2019-04-10T12:39:25.112Z,94500.45
2019-04-10T12:41:56.243Z,94507.18
2019-04-10T12:44:27.238Z,94501.75
2019-04-10T12:46:58.237Z,94507.48
2019-04-10T12:49:29.738Z,94503.63
2019-04-10T12:52:00.800Z,94505.17
2019-04-10T12:54:31.944Z,94505.94
2019-04-10T12:57:04.241Z,94507.34
2019-04-10T12:59:35.384Z,94502.12
2019-04-10T13:02:06.594Z,94505.80
2019-04-10T13:04:38.607Z,94505.44
2019-04-10T13:07:09.709Z,94499.03
2019-04-10T13:09:40.707Z,94502.30
2019-04-10T13:12:11.794Z,94498.11
2019-04-10T13:14:43.128Z,94497.53
2019-04-10T13:17:16.487Z,94494.70
2019-04-10T13:19:49.244Z,94493.10
2019-04-10T13:22:20.378Z,94500.91
2019-04-10T13:24:52.090Z,94493.62
2019-04-10T13:27:23.330Z,94501.79
2019-04-10T13:29:54.422Z,94500.00
2019-04-10T13:32:25.586Z,94503.72
2019-04-10T13:34:57.613Z,94502.80
2019-04-10T13:37:28.725Z,94505.11
2019-04-10T13:39:59.729Z,94503.89
2019-04-10T13:42:31.585Z,94506.55
2019-04-10T13:45:02.940Z,94505.90
2019-04-10T13:47:35.250Z,94504.15
2019-04-10T13:50:08.469Z,94505.55
2019-04-10T13:52:42.603Z,94503.58
2019-04-10T13:55:14.937Z,94506.25
2019-04-10T13:57:46.616Z,94499.54
2019-04-10T14:00:27.983Z,94502.56
2019-04-10T14:02:59.076Z,94500.27
2019-04-10T14:05:32.466Z,94502.15
2019-04-10T14:08:03.477Z,94507.04
2019-04-10T14:10:35.297Z,94503.11
2019-04-10T14:13:07.474Z,94509.47
2019-04-10T14:15:38.633Z,94509.67
2019-04-10T14:18:10.230Z,94508.48
2019-04-10T14:20:41.620Z,94509.73
2019-04-10T14:23:22.360Z,94518.91
2019-04-10T14:26:16.162Z,94525.17
2019-04-10T14:28:49.399Z,94523.42
2019-04-10T14:31:45.428Z,94521.67
2019-04-10T14:34:18.413Z,94516.28
2019-04-10T14:36:49.422Z,94516.80
2019-04-10T14:39:21.440Z,94520.77
2019-04-10T14:41:53.924Z,94523.06
2019-04-10T14:44:25.025Z,94524.78
2019-04-10T14:46:56.356Z,94527.60
2019-04-10T14:49:27.357Z,94523.63
2019-04-10T14:51:58.902Z,94526.23
2019-04-10T14:54:30.172Z,94526.35
2019-04-10T14:57:02.435Z,94524.94
2019-04-10T14:59:33.835Z,94531.84
2019-04-10T15:02:06.954Z,94531.97
2019-04-10T15:04:37.967Z,94532.84
2019-04-10T15:07:10.070Z,94536.16
2019-04-10T15:10:36.697Z,94530.95
2019-04-10T15:13:13.643Z,94531.71
2019-04-10T15:15:40.711Z,94531.39
2019-04-10T15:18:12.998Z,94531.52
2019-04-10T15:20:45.306Z,94533.26
2019-04-10T15:23:16.324Z,94539.99
2019-04-10T15:25:47.510Z,94533.86
2019-04-10T15:28:18.609Z,94536.44
2019-04-10T15:30:50.745Z,94538.55
2019-04-10T15:33:22.509Z,94542.09
2019-04-10T15:35:53.699Z,94538.16
2019-04-10T15:38:24.770Z,94538.88
2019-04-10T15:40:56.795Z,94538.46
2019-04-10T15:43:28.048Z,94539.67
2019-04-10T15:46:00.123Z,94546.80
2019-04-10T15:48:31.263Z,94542.52
2019-04-10T15:51:03.530Z,94542.63
2019-04-10T15:53:34.940Z,94541.15
2019-04-10T15:56:06.206Z,94546.16
2019-04-10T15:58:37.432Z,94544.23
2019-04-10T16:01:12.361Z,94550.12
2019-04-10T16:03:47.913Z,94548.81
2019-04-10T16:06:19.124Z,94547.98
2019-04-10T16:08:50.431Z,94547.98
2019-04-10T16:11:52.734Z,94553.31
2019-04-10T16:14:27.124Z,94554.52
2019-04-10T16:17:10.410Z,94555.09
2019-04-10T16:20:15.594Z,94561.66
2019-04-10T16:23:01.736Z,94566.60
2019-04-10T16:25:34.000Z,94563.59
2019-04-10T16:28:06.358Z,94563.77
2019-04-10T16:30:37.368Z,94559.87
2019-04-10T16:33:09.068Z,94562.83
2019-04-10T16:35:40.450Z,94560.51
2019-04-10T16:38:12.128Z,94566.59
2019-04-10T16:40:43.827Z,94570.23
2019-04-10T16:43:16.004Z,94573.47
2019-04-10T16:45:47.246Z,94569.92
2019-04-10T16:48:18.913Z,94575.48
2019-04-10T16:50:50.169Z,94569.35
2019-04-10T16:53:22.188Z,94569.01
2019-04-10T16:55:54.370Z,94576.11
2019-04-10T16:58:25.604Z,94581.02
2019-04-10T17:00:57.936Z,94591.77
2019-04-10T17:03:29.656Z,94589.93
2019-04-10T17:06:01.789Z,94588.33
2019-04-10T17:08:34.067Z,94593.38
2019-04-10T17:11:07.040Z,94591.02
2019-04-10T17:13:38.507Z,94593.84
2019-04-10T17:16:10.595Z,94595.10
2019-04-10T17:18:41.723Z,94596.58
2019-04-10T17:21:15.151Z,94592.52
2019-04-10T17:23:46.935Z,94587.45
2019-04-10T17:26:19.047Z,94596.89
2019-04-10T17:28:50.438Z,94589.69
2019-04-10T17:31:22.489Z,94593.67
2019-04-10T17:33:54.468Z,94597.92
2019-04-10T17:36:25.777Z,94598.23
2019-04-10T17:38:56.829Z,94596.13
2019-04-10T17:41:28.107Z,94594.34
2019-04-10T17:44:01.115Z,94591.36
2019-04-10T17:46:33.369Z,94608.76
2019-04-10T17:49:05.363Z,94612.85
2019-04-10T17:51:36.493Z,94612.80
2019-04-10T17:54:07.495Z,94608.88
2019-04-10T17:56:38.538Z,94611.97
2019-04-10T17:59:09.856Z,94621.44
2019-04-10T18:01:41.166Z,94622.86
2019-04-10T18:04:12.334Z,94621.25
2019-04-10T18:06:45.689Z,94633.81
2019-04-10T18:09:16.181Z,94629.73
2019-04-10T18:11:47.723Z,94631.62
2019-04-10T18:14:19.431Z,94642.48
2019-04-10T18:16:50.577Z,94645.89
2019-04-10T18:19:22.191Z,94651.13
2019-04-10T18:21:54.184Z,94651.44
2019-04-10T18:24:26.216Z,94657.67
2019-04-10T18:26:58.399Z,94663.20
2019-04-10T18:29:30.942Z,94670.37
2019-04-10T18:32:02.681Z,94668.91
2019-04-10T18:34:33.941Z,94679.01
2019-04-10T18:37:05.499Z,94686.50
2019-04-10T18:39:36.712Z,94691.55
2019-04-10T18:42:07.834Z,94699.22
2019-04-10T18:44:39.583Z,94704.44
2019-04-10T18:47:11.094Z,94708.33
2019-04-10T18:49:43.376Z,94707.19
2019-04-10T18:52:15.087Z,94704.58
2019-04-10T18:54:46.212Z,94708.00
2019-04-10T18:57:17.802Z,94708.98
2019-04-10T19:00:03.444Z,94711.93
2019-04-10T19:02:45.312Z,94714.52
2019-04-10T19:05:19.918Z,94717.80
2019-04-10T19:07:50.992Z,94723.98
2019-04-10T19:10:22.206Z,94717.47
2019-04-10T19:12:53.147Z,94721.54
2019-04-10T19:15:24.413Z,94722.02
2019-04-10T19:17:55.886Z,94720.22
2019-04-10T19:20:26.902Z,94727.02
2019-04-10T19:22:59.016Z,94727.55
2019-04-10T19:25:30.364Z,94731.59
2019-04-10T19:28:01.381Z,94725.43
2019-04-10T19:31:08.070Z,94730.80
2019-04-10T19:33:28.668Z,94736.34
2019-04-10T19:35:59.685Z,94740.61
2019-04-10T19:38:31.607Z,94738.31
2019-04-10T19:41:02.797Z,94740.61
2019-04-10T19:43:34.760Z,94747.73
2019-04-10T19:46:06.698Z,94744.51
2019-04-10T19:48:37.688Z,94748.27
2019-04-10T19:51:09.781Z,94749.91
2019-04-10T19:53:41.560Z,94752.83
2019-04-10T19:56:12.739Z,94748.10
2019-04-10T19:58:45.995Z,94755.16
2019-04-10T20:01:17.191Z,94751.98
2019-04-10T20:03:48.613Z,94750.16
2019-04-10T20:06:21.346Z,94751.00
2019-04-10T20:08:52.320Z,94741.41
2019-04-10T20:11:33.787Z,94751.30
2019-04-10T20:13:57.038Z,94750.34
2019-04-10T20:16:28.856Z,94746.41
2019-04-10T20:19:01.250Z,94755.73
2019-04-10T20:21:32.370Z,94755.39
2019-04-10T20:24:04.748Z,94753.30
2019-04-10T20:26:36.907Z,94756.03
2019-04-10T20:29:08.055Z,94758.98
2019-04-10T20:31:39.598Z,94760.63
2019-04-10T20:34:11.525Z,94763.42
2019-04-10T20:36:42.682Z,94767.88
2019-04-10T20:39:14.865Z,94769.41
2019-04-10T20:41:51.942Z,94766.00
2019-04-10T20:44:18.803Z,94766.16
2019-04-10T20:46:50.753Z,94768.92
2019-04-10T20:49:22.505Z,94775.89
2019-04-10T20:51:53.681Z,94779.11
2019-04-10T20:54:24.738Z,94771.66
2019-04-10T20:56:56.978Z,94778.69
2019-04-10T20:59:28.617Z,94775.25
2019-04-10T21:01:59.954Z,94779.48
2019-04-10T21:04:31.780Z,94780.27
2019-04-10T21:07:03.028Z,94780.94
2019-04-10T21:09:34.241Z,94781.22
2019-04-10T21:12:10.375Z,94786.06
2019-04-10T21:14:38.270Z,94784.88
2019-04-10T21:17:09.269Z,94785.31
2019-04-10T21:19:40.967Z,94786.77
2019-04-10T21:22:12.026Z,94791.98
2019-04-10T21:24:43.399Z,94791.33
2019-04-10T21:27:14.511Z,94789.73
2019-04-10T21:29:54.798Z,94790.73
2019-04-10T21:32:52.910Z,94792.03
2019-04-10T21:35:29.627Z,94790.73
2019-04-10T21:38:02.591Z,94792.82
2019-04-10T21:40:34.745Z,94790.34
2019-04-10T21:43:07.006Z,94786.42
2019-04-10T21:45:39.258Z,94786.81
2019-04-10T21:48:10.504Z,94780.84
2019-04-10T21:50:41.857Z,94781.45
2019-04-10T21:53:12.957Z,94788.25
2019-04-10T21:55:43.939Z,94787.87
2019-04-10T21:58:14.927Z,94783.98
2019-04-10T22:01:20.191Z,94788.31
2019-04-10T22:03:52.886Z,94791.55
2019-04-10T22:06:49.469Z,94796.83
2019-04-10T22:09:39.055Z,94788.77
2019-04-10T22:12:43.933Z,94798.73
2019-04-10T22:15:22.582Z,94796.91
2019-04-10T22:17:53.531Z,94801.45
2019-04-10T22:20:25.653Z,94804.83
2019-04-10T22:22:57.601Z,94805.51
2019-04-10T22:25:29.742Z,94800.94
2019-04-10T22:28:00.861Z,94800.74
2019-04-10T22:30:32.907Z,94799.95
2019-04-10T23:15:15.414Z,94780.75
2019-04-10T23:17:46.423Z,94784.83
2019-04-10T23:20:18.534Z,94785.30
2019-04-10T23:22:50.626Z,94790.17
2019-04-10T23:25:22.464Z,94786.69
2019-04-10T23:27:56.218Z,94790.25
2019-04-10T23:30:26.721Z,94792.00
2019-04-10T23:32:57.800Z,94793.03
2019-04-10T23:35:29.508Z,94789.95
2019-04-10T23:38:01.487Z,94796.25
2019-04-10T23:40:32.829Z,94791.88
2019-04-10T23:43:11.265Z,94796.59
2019-04-10T23:45:37.699Z,94795.07
2019-04-10T23:48:08.966Z,94801.58
2019-04-10T23:50:40.651Z,94796.38
2019-04-10T23:53:12.076Z,94802.64
2019-04-10T23:55:43.256Z,94802.08
2019-04-10T23:58:14.333Z,94796.67
